Time;durP1;ratioP1;P1;durP2;ratioP2;P2;SDS_P1;SDS_P2;PMS_P1;PMS_P2;Temp;Humidity;BMP_temperature;BMP_pressure;BME280_temperature;BME280_humidity;BME280_pressure;Samples;Min_cycle;Max_cycle;Signal;HPM_P1;HPM_P2
2021/03/31 00:00:46;;;;;;;8.13;4.13;;;12.20;54.90;;;;;;5013746;28;20034;-76
2021/03/31 00:03:14;;;;;;;7.45;4.00;;;12.20;55.00;;;;;;5026752;28;20519;-76
2021/03/31 00:05:41;;;;;;;13.18;4.57;;;12.10;55.50;;;;;;5015134;28;20042;-75
2021/03/31 00:08:07;;;;;;;9.50;4.63;;;12.00;55.70;;;;;;5013235;28;20025;-77
2021/03/31 00:10:43;;;;;;;11.68;4.35;;;12.00;56.00;;;;;;5012578;28;20091;-77
2021/03/31 00:13:08;;;;;;;8.68;4.90;;;11.90;56.50;;;;;;5012209;28;20115;-76
2021/03/31 00:15:34;;;;;;;10.18;4.05;;;11.90;57.10;;;;;;5011195;28;20113;-75
2021/03/31 00:18:06;;;;;;;12.60;5.18;;;11.90;57.70;;;;;;5017577;28;20263;-76
2021/03/31 00:20:32;;;;;;;11.98;5.18;;;11.80;58.60;;;;;;5017317;28;20474;-75
2021/03/31 00:22:57;;;;;;;13.02;5.20;;;11.80;59.10;;;;;;5015454;28;20053;-75
2021/03/31 00:25:23;;;;;;;14.55;6.07;;;11.70;59.60;;;;;;5012609;28;20033;-75
2021/03/31 00:27:49;;;;;;;17.33;6.13;;;11.70;60.80;;;;;;5014256;28;20035;-75
2021/03/31 00:30:15;;;;;;;13.00;5.32;;;11.70;61.10;;;;;;5017806;28;20485;-75
2021/03/31 00:32:42;;;;;;;9.65;4.63;;;11.60;61.30;;;;;;5014436;28;20439;-77
2021/03/31 00:35:09;;;;;;;11.05;5.43;;;11.60;60.30;;;;;;5022969;28;20107;-76
2021/03/31 00:37:38;;;;;;;13.52;4.90;;;11.60;60.80;;;;;;5012680;28;20065;-76
2021/03/31 00:40:10;;;;;;;10.50;4.75;;;11.50;61.50;;;;;;5010834;28;20068;-76
2021/03/31 00:42:35;;;;;;;12.55;4.68;;;11.50;60.60;;;;;;5012470;28;20033;-76
2021/03/31 00:45:03;;;;;;;10.65;4.85;;;11.50;59.60;;;;;;5009470;28;20022;-76
2021/03/31 00:47:28;;;;;;;8.88;4.13;;;11.40;57.70;;;;;;5011287;28;20049;-76
2021/03/31 00:49:54;;;;;;;7.60;4.10;;;11.30;58.20;;;;;;5011847;28;20119;-76
2021/03/31 00:52:24;;;;;;;8.98;3.80;;;11.30;58.70;;;;;;5017125;28;20496;-76
2021/03/31 00:54:50;;;;;;;5.95;3.80;;;11.30;58.80;;;;;;5013512;28;20042;-75
2021/03/31 00:57:18;;;;;;;8.20;4.20;;;11.30;58.50;;;;;;5027899;28;20029;-76
2021/03/31 00:59:45;;;;;;;7.82;3.88;;;11.20;58.80;;;;;;5013892;28;20033;-76
2021/03/31 01:02:11;;;;;;;7.03;4.15;;;11.20;59.10;;;;;;5013609;28;20416;-76
2021/03/31 01:04:36;;;;;;;7.30;4.20;;;11.10;59.60;;;;;;5013649;28;20033;-76
2021/03/31 01:07:02;;;;;;;6.57;3.63;;;11.00;60.00;;;;;;5013192;28;20051;-75
2021/03/31 01:09:28;;;;;;;9.07;4.32;;;11.00;60.50;;;;;;5013868;28;20026;-78
2021/03/31 01:12:14;;;;;;;6.90;4.13;;;11.00;60.80;;;;;;5027600;28;20036;-74
2021/03/31 01:15:17;;;;;;;8.18;3.72;;;11.00;61.30;;;;;;5022424;28;20037;-75
2021/03/31 01:17:51;;;;;;;8.75;3.95;;;10.90;61.40;;;;;;5009601;28;20025;-76
2021/03/31 01:20:34;;;;;;;10.68;4.18;;;10.90;61.80;;;;;;5009020;28;20040;-75
2021/03/31 01:23:19;;;;;;;7.55;4.10;;;10.90;62.20;;;;;;5028082;28;20799;-76
2021/03/31 01:26:18;;;;;;;9.25;3.88;;;10.90;62.50;;;;;;5011989;28;20500;-75
2021/03/31 01:29:02;;;;;;;8.23;4.50;;;10.90;63.00;;;;;;5015837;28;20025;-75
2021/03/31 01:31:30;;;;;;;11.85;4.40;;;10.80;63.20;;;;;;5033250;28;20076;-76
2021/03/31 01:34:20;;;;;;;8.27;4.60;;;10.80;63.40;;;;;;5028994;28;20474;-75
2021/03/31 01:36:49;;;;;;;9.05;4.20;;;10.70;63.30;;;;;;5014224;28;20041;-76
2021/03/31 01:39:18;;;;;;;11.15;4.20;;;10.70;64.40;;;;;;5015266;28;20570;-75
2021/03/31 01:41:45;;;;;;;7.25;3.80;;;10.70;64.70;;;;;;5018086;28;20049;-74
2021/03/31 01:44:14;;;;;;;9.40;4.00;;;11.00;65.30;;;;;;5015421;28;20487;-75
2021/03/31 01:46:43;;;;;;;10.07;3.88;;;10.70;65.30;;;;;;5019538;28;20017;-77
2021/03/31 01:49:09;;;;;;;10.02;3.72;;;10.70;65.50;;;;;;5011510;28;20037;-75
2021/03/31 01:51:36;;;;;;;7.50;3.60;;;10.70;64.60;;;;;;5016702;28;20025;-75
2021/03/31 01:54:04;;;;;;;8.30;3.67;;;10.70;64.40;;;;;;5017773;28;20063;-76
2021/03/31 01:56:31;;;;;;;9.73;4.03;;;10.60;64.70;;;;;;5013117;28;20120;-76
2021/03/31 01:58:58;;;;;;;10.43;3.78;;;10.50;65.00;;;;;;5018216;28;20029;-76
2021/03/31 02:01:26;;;;;;;9.35;3.42;;;10.50;65.60;;;;;;5014298;28;20328;-76
2021/03/31 02:03:54;;;;;;;9.15;3.85;;;10.40;66.00;;;;;;5018120;28;20446;-75
2021/03/31 02:06:20;;;;;;;8.05;3.95;;;10.40;66.50;;;;;;5015025;28;20515;-76
2021/03/31 02:08:47;;;;;;;7.78;3.72;;;10.40;66.90;;;;;;5016993;28;20025;-76
2021/03/31 02:11:14;;;;;;;8.82;3.63;;;10.30;66.60;;;;;;5015384;28;20061;-76
2021/03/31 02:13:40;;;;;;;8.82;3.72;;;10.30;67.10;;;;;;5009386;28;20350;-77
2021/03/31 02:16:10;;;;;;;8.52;3.78;;;10.30;67.00;;;;;;5010157;28;20136;-76
2021/03/31 02:18:36;;;;;;;9.38;3.88;;;10.30;67.30;;;;;;5027097;28;20396;-76
2021/03/31 02:21:02;;;;;;;7.20;3.38;;;10.20;67.90;;;;;;5031001;28;20029;-75
2021/03/31 02:23:28;;;;;;;10.40;3.78;;;10.20;68.50;;;;;;5015332;28;20045;-75
2021/03/31 02:25:55;;;;;;;9.32;3.75;;;10.10;68.80;;;;;;5011625;28;20038;-75
2021/03/31 02:28:21;;;;;;;7.28;3.47;;;10.10;69.50;;;;;;5015219;28;20127;-76
2021/03/31 02:30:47;;;;;;;7.88;3.60;;;10.10;70.40;;;;;;5018069;28;20025;-77
2021/03/31 02:33:13;;;;;;;10.65;4.30;;;10.00;71.00;;;;;;5013781;28;20443;-76
2021/03/31 02:35:41;;;;;;;6.40;3.70;;;10.00;71.80;;;;;;5014093;28;20033;-76
2021/03/31 02:38:10;;;;;;;6.85;3.75;;;10.00;71.90;;;;;;5014465;28;20029;-76
2021/03/31 02:40:37;;;;;;;9.68;4.03;;;10.00;72.40;;;;;;5010340;28;20076;-76
2021/03/31 02:43:06;;;;;;;7.22;3.60;;;9.90;72.90;;;;;;5014361;28;20508;-75
2021/03/31 02:45:33;;;;;;;7.47;3.60;;;9.90;72.90;;;;;;5021719;28;20029;-75
2021/03/31 02:48:02;;;;;;;6.93;3.60;;;9.90;74.00;;;;;;5022660;28;20440;-77
2021/03/31 02:50:30;;;;;;;8.57;4.00;;;9.90;73.90;;;;;;5016263;28;20049;-74
2021/03/31 02:52:57;;;;;;;8.63;4.10;;;9.90;75.50;;;;;;5016607;28;20021;-76
2021/03/31 02:55:23;;;;;;;7.80;4.40;;;11.20;77.30;;;;;;5013652;28;20121;-76
2021/03/31 02:57:49;;;;;;;9.43;4.45;;;9.80;77.90;;;;;;5011292;28;20092;-76
2021/03/31 03:00:16;;;;;;;8.95;4.53;;;9.80;78.20;;;;;;5011782;28;20030;-75
2021/03/31 03:02:44;;;;;;;12.38;5.22;;;9.80;79.30;;;;;;5025385;28;20037;-75
2021/03/31 03:05:12;;;;;;;9.65;4.60;;;9.70;81.20;;;;;;5014110;28;20048;-76
2021/03/31 03:07:40;;;;;;;10.20;4.47;;;9.70;82.10;;;;;;5011697;28;20060;-76
2021/03/31 03:10:08;;;;;;;12.32;5.40;;;9.70;82.80;;;;;;5009199;28;20026;-76
2021/03/31 03:12:43;;;;;;;9.07;4.45;;;9.60;83.70;;;;;;5027935;28;20029;-75
2021/03/31 03:15:12;;;;;;;8.25;4.63;;;9.60;83.80;;;;;;5013439;28;20040;-74
2021/03/31 03:17:38;;;;;;;11.73;4.65;;;9.60;84.20;;;;;;5015859;28;20120;-75
2021/03/31 03:20:10;;;;;;;11.73;5.32;;;9.70;84.50;;;;;;5011368;28;20124;-75
2021/03/31 03:22:38;;;;;;;11.93;5.03;;;9.60;86.10;;;;;;5034175;28;20025;-76
2021/03/31 03:25:05;;;;;;;7.53;4.35;;;9.50;86.50;;;;;;5014078;28;20044;-76
2021/03/31 03:27:35;;;;;;;8.65;4.70;;;7.10;85.30;;;;;;5012943;28;20674;-76
2021/03/31 03:30:03;;;;;;;10.10;4.68;;;9.50;87.10;;;;;;5010114;28;20026;-76
2021/03/31 03:32:28;;;;;;;8.38;4.63;;;9.50;86.90;;;;;;5026249;28;20072;-76
2021/03/31 03:34:55;;;;;;;8.32;4.38;;;9.50;86.20;;;;;;5031148;28;20447;-76
2021/03/31 03:37:21;;;;;;;15.23;4.90;;;9.40;86.10;;;;;;5010576;28;20034;-76
2021/03/31 03:39:47;;;;;;;9.43;4.85;;;9.40;86.50;;;;;;5012594;28;20057;-77
2021/03/31 03:42:13;;;;;;;11.43;4.72;;;9.40;86.00;;;;;;5014623;28;20034;-76
2021/03/31 03:44:40;;;;;;;10.18;4.57;;;9.40;86.00;;;;;;5007663;28;20487;-76
2021/03/31 03:47:07;;;;;;;8.95;5.07;;;9.40;85.40;;;;;;5009232;28;20030;-76
2021/03/31 03:49:37;;;;;;;15.05;4.18;;;9.40;85.50;;;;;;5010639;28;20029;-75
2021/03/31 03:52:07;;;;;;;13.02;4.75;;;9.30;84.90;;;;;;5017754;28;20025;-76
2021/03/31 03:54:33;;;;;;;9.77;4.68;;;9.30;83.90;;;;;;5013670;28;20487;-75
2021/03/31 03:56:58;;;;;;;11.40;4.72;;;9.30;84.40;;;;;;5016515;28;20037;-77
2021/03/31 03:59:27;;;;;;;8.50;4.45;;;9.20;84.30;;;;;;5013039;28;20443;-75
2021/03/31 04:01:53;;;;;;;8.18;4.45;;;9.20;84.10;;;;;;5008792;28;20041;-75
2021/03/31 04:04:19;;;;;;;10.50;4.38;;;9.20;83.80;;;;;;5014677;28;20031;-73
2021/03/31 04:06:45;;;;;;;9.43;4.47;;;9.20;84.10;;;;;;5014143;28;20029;-76
2021/03/31 04:09:11;;;;;;;9.85;4.68;;;9.20;84.30;;;;;;5012043;28;20025;-76
2021/03/31 04:11:39;;;;;;;11.35;4.55;;;9.10;84.80;;;;;;5014558;28;20112;-76
2021/03/31 04:14:05;;;;;;;10.20;5.20;;;9.10;85.80;;;;;;5024347;28;20092;-76
2021/03/31 04:16:33;;;;;;;10.60;4.57;;;9.10;88.00;;;;;;5000921;28;20038;-75
2021/03/31 04:19:06;;;;;;;11.63;5.10;;;9.00;89.50;;;;;;5012389;28;20029;-74
2021/03/31 04:21:34;;;;;;;12.93;5.32;;;9.00;90.30;;;;;;5013032;28;20043;-73
2021/03/31 04:24:00;;;;;;;19.48;6.03;;;8.90;90.30;;;;;;5011898;28;20030;-76
2021/03/31 04:26:28;;;;;;;15.38;6.40;;;8.90;90.50;;;;;;5014343;28;20030;-75
2021/03/31 04:28:54;;;;;;;12.27;5.93;;;8.90;90.80;;;;;;5014003;28;20029;-77
2021/03/31 04:31:21;;;;;;;13.13;5.82;;;8.90;90.80;;;;;;5027331;28;20827;-76
2021/03/31 04:33:47;;;;;;;18.17;5.95;;;8.80;90.90;;;;;;5022982;28;20030;-76
2021/03/31 04:36:13;;;;;;;13.20;5.63;;;8.80;91.00;;;;;;5011869;28;20030;-73
2021/03/31 04:38:46;;;;;;;13.60;6.05;;;8.70;91.10;;;;;;5011903;28;20030;-75
2021/03/31 04:41:14;;;;;;;12.38;5.93;;;8.70;91.10;;;;;;5012508;28;20026;-75
2021/03/31 04:43:40;;;;;;;12.57;5.70;;;8.70;91.30;;;;;;5012349;28;20026;-76
2021/03/31 04:46:09;;;;;;;13.50;5.13;;;8.60;91.30;;;;;;5007730;28;20029;-76
2021/03/31 04:48:38;;;;;;;13.13;5.45;;;8.60;91.40;;;;;;5012772;28;20087;-74
2021/03/31 04:51:06;;;;;;;12.30;5.22;;;8.60;91.50;;;;;;5014625;28;20052;-75
2021/03/31 04:53:32;;;;;;;14.57;5.30;;;8.50;91.70;;;;;;4996425;28;20550;-78
2021/03/31 04:55:57;;;;;;;15.02;5.53;;;8.40;92.20;;;;;;5010799;28;20480;-75
2021/03/31 04:58:23;;;;;;;10.85;5.20;;;8.40;92.30;;;;;;5014717;28;20056;-75
2021/03/31 05:00:49;;;;;;;10.95;4.85;;;8.40;92.50;;;;;;5008015;28;20527;-75
2021/03/31 05:03:15;;;;;;;10.38;4.80;;;8.40;92.20;;;;;;5020920;28;20268;-75
2021/03/31 05:05:40;;;;;;;9.20;4.70;;;8.40;92.40;;;;;;5019717;28;20516;-75
2021/03/31 05:08:06;;;;;;;10.85;4.70;;;8.40;92.30;;;;;;5024796;28;20105;-77
2021/03/31 05:10:32;;;;;;;13.77;4.18;;;8.50;92.30;;;;;;5022085;28;20486;-74
2021/03/31 05:13:01;;;;;;;15.20;5.10;;;8.50;92.10;;;;;;5034813;28;20025;-77
2021/03/31 05:15:27;;;;;;;17.13;6.50;;;8.30;92.40;;;;;;5025502;28;20018;-76
2021/03/31 05:17:52;;;;;;;11.98;5.35;;;8.20;92.70;;;;;;5019485;28;20029;-76
2021/03/31 05:20:18;;;;;;;10.40;5.28;;;8.20;92.70;;;;;;5021435;28;20657;-76
2021/03/31 05:22:46;;;;;;;13.60;5.65;;;8.10;92.90;;;;;;5018486;28;20026;-75
2021/03/31 05:25:13;;;;;;;12.40;6.15;;;8.10;92.90;;;;;;5021607;28;20070;-76
2021/03/31 05:27:38;;;;;;;10.07;5.43;;;8.20;92.90;;;;;;5023142;28;20025;-75
2021/03/31 05:30:11;;;;;;;14.50;6.10;;;8.20;92.80;;;;;;5020288;28;20079;-75
2021/03/31 05:32:37;;;;;;;9.93;6.18;;;8.20;92.40;;;;;;5015718;28;20030;-78
2021/03/31 05:35:05;;;;;;;14.02;6.57;;;8.20;92.20;;;;;;5019665;28;20411;-76
2021/03/31 05:37:31;;;;;;;15.18;7.05;;;8.20;92.30;;;;;;5019093;28;20036;-78
2021/03/31 05:39:56;;;;;;;14.07;6.10;;;8.30;92.60;;;;;;5018500;28;20030;-76
2021/03/31 05:42:25;;;;;;;12.50;5.72;;;8.30;92.70;;;;;;5022955;28;20128;-77
2021/03/31 05:44:53;;;;;;;13.98;5.55;;;8.40;92.40;;;;;;5019551;28;20034;-78
2021/03/31 05:47:26;;;;;;;9.10;5.32;;;8.40;91.70;;;;;;5019630;28;20029;-75
2021/03/31 05:49:53;;;;;;;14.18;5.43;;;8.40;91.70;;;;;;5019299;28;20512;-76
2021/03/31 05:52:19;;;;;;;9.82;5.30;;;8.40;91.90;;;;;;5019361;28;20120;-77
2021/03/31 05:54:44;;;;;;;9.25;5.28;;;8.40;91.70;;;;;;5020650;28;20028;-76
2021/03/31 05:57:11;;;;;;;15.40;6.13;;;8.40;91.40;;;;;;5017524;28;20067;-76
2021/03/31 05:59:38;;;;;;;11.02;5.50;;;8.40;91.80;;;;;;5031053;28;20485;-77
2021/03/31 06:02:12;;;;;;;12.23;5.90;;;8.60;91.70;;;;;;5014415;28;20514;-77
2021/03/31 06:04:38;;;;;;;17.33;7.05;;;8.50;91.70;;;;;;5017076;28;20476;-76
2021/03/31 06:07:04;;;;;;;22.85;6.85;;;8.50;91.60;;;;;;5016489;28;20142;-76
2021/03/31 06:09:30;;;;;;;11.20;6.00;;;8.50;91.70;;;;;;5017496;28;20384;-77
2021/03/31 06:12:00;;;;;;;13.85;6.32;;;8.60;91.80;;;;;;5018760;28;20093;-76
2021/03/31 06:14:35;;;;;;;12.90;6.18;;;8.60;91.70;;;;;;5018386;28;20037;-76
2021/03/31 06:17:08;;;;;;;11.50;5.95;;;8.60;91.70;;;;;;5026165;28;20033;-76
2021/03/31 06:19:34;;;;;;;14.75;6.35;;;8.70;91.50;;;;;;5017275;28;20136;-75
2021/03/31 06:22:20;;;;;;;13.18;6.97;;;8.70;91.30;;;;;;5020458;28;20025;-76
2021/03/31 06:25:20;;;;;;;14.68;6.57;;;8.80;91.30;;;;;;5017072;28;20033;-76
2021/03/31 06:27:59;;;;;;;12.93;6.55;;;8.90;91.10;;;;;;5021490;28;20128;-76
2021/03/31 06:30:28;;;;;;;13.68;6.22;;;8.90;91.00;;;;;;5016887;28;20052;-76
2021/03/31 06:32:54;;;;;;;16.15;6.85;;;9.00;90.50;;;;;;5027556;28;20022;-76
2021/03/31 06:35:24;;;;;;;16.38;7.00;;;9.00;90.20;;;;;;5020469;28;20021;-76
2021/03/31 06:37:50;;;;;;;10.63;5.57;;;9.00;90.00;;;;;;5014274;28;20034;-77
2021/03/31 06:40:46;;;;;;;13.80;7.13;;;9.20;90.00;;;;;;5024513;28;20025;-76
2021/03/31 06:43:26;;;;;;;14.88;6.90;;;9.30;89.70;;;;;;5018369;28;20042;-77
2021/03/31 06:48:20;;;;;;;13.88;7.45;;;9.40;89.50;;;;;;5020607;28;20472;-77
2021/03/31 06:50:46;;;;;;;18.20;8.30;;;9.50;89.40;;;;;;5018356;28;20507;-77
2021/03/31 06:53:11;;;;;;;17.23;8.23;;;9.60;88.60;;;;;;5019342;28;20114;-78
2021/03/31 06:55:38;;;;;;;18.05;8.50;;;9.80;88.00;;;;;;5020880;28;20021;-77
2021/03/31 06:58:07;;;;;;;20.73;9.00;;;9.90;87.50;;;;;;5025837;28;20025;-76
2021/03/31 07:00:34;;;;;;;20.30;8.48;;;10.10;86.50;;;;;;5017739;28;20502;-75
2021/03/31 07:03:10;;;;;;;19.50;9.38;;;10.10;85.70;;;;;;5020982;28;20099;-77
2021/03/31 07:05:42;;;;;;;18.15;8.60;;;10.20;85.00;;;;;;5023196;28;20488;-76
2021/03/31 07:08:12;;;;;;;17.83;9.30;;;10.20;85.00;;;;;;5017418;28;20058;-76
2021/03/31 07:10:42;;;;;;;17.80;8.50;;;10.40;84.30;;;;;;5023090;28;20103;-76
2021/03/31 07:13:08;;;;;;;20.42;9.13;;;10.30;83.80;;;;;;5020989;28;20029;-76
2021/03/31 07:15:35;;;;;;;18.10;9.25;;;10.60;82.30;;;;;;5019267;28;20420;-75
2021/03/31 07:18:01;;;;;;;24.50;8.50;;;10.80;81.50;;;;;;5023286;28;20113;-77
2021/03/31 07:20:29;;;;;;;20.73;8.52;;;11.00;78.90;;;;;;5018291;28;21109;-76
2021/03/31 07:22:55;;;;;;;20.30;8.93;;;11.20;78.40;;;;;;5026164;28;20590;-76
2021/03/31 07:25:23;;;;;;;16.85;8.38;;;11.20;78.80;;;;;;5020295;28;20116;-76
2021/03/31 07:27:50;;;;;;;16.70;7.88;;;11.40;77.30;;;;;;5023493;28;20034;-78
2021/03/31 07:30:19;;;;;;;17.20;7.88;;;11.70;76.00;;;;;;5038953;28;20506;-75
2021/03/31 07:32:58;;;;;;;16.85;8.23;;;11.80;74.80;;;;;;5018632;28;20420;-76
2021/03/31 07:35:26;;;;;;;17.23;7.70;;;12.00;72.00;;;;;;5020157;28;20021;-77
2021/03/31 07:37:53;;;;;;;19.08;8.63;;;12.00;72.50;;;;;;5012087;28;20488;-77
2021/03/31 07:40:19;;;;;;;20.77;7.97;;;12.10;72.60;;;;;;4989002;28;20091;-77
2021/03/31 07:42:59;;;;;;;23.42;8.35;;;12.20;72.20;;;;;;5016021;28;22465;-76
2021/03/31 07:45:30;;;;;;;17.10;8.27;;;12.30;72.20;;;;;;5016028;28;20040;-77
2021/03/31 07:47:57;;;;;;;17.60;8.05;;;12.40;71.40;;;;;;5010823;28;20551;-76
2021/03/31 07:50:26;;;;;;;21.25;8.23;;;12.60;70.60;;;;;;5013691;28;20017;-76
2021/03/31 07:52:57;;;;;;;17.58;7.93;;;12.80;69.90;;;;;;5017958;28;20030;-76
2021/03/31 07:55:33;;;;;;;18.08;8.10;;;13.00;68.80;;;;;;5014979;28;20037;-77
2021/03/31 07:58:28;;;;;;;14.05;8.00;;;13.20;67.80;;;;;;5016346;28;20029;-75
2021/03/31 08:01:03;;;;;;;12.77;7.45;;;13.30;67.00;;;;;;5018195;28;20033;-75
2021/03/31 08:03:38;;;;;;;24.00;8.25;;;13.60;66.40;;;;;;5015033;28;20117;-76
2021/03/31 08:06:06;;;;;;;17.38;8.07;;;13.80;64.90;;;;;;5011372;28;20436;-75
2021/03/31 08:08:45;;;;;;;20.08;8.73;;;14.00;64.30;;;;;;5023802;28;20026;-76
2021/03/31 08:11:40;;;;;;;18.63;8.02;;;14.20;63.00;;;;;;5027890;28;20033;-76
2021/03/31 08:14:13;;;;;;;19.70;7.22;;;14.40;62.70;;;;;;5007627;28;20032;-77
2021/03/31 08:16:46;;;;;;;17.27;7.90;;;14.70;62.10;;;;;;5022928;28;20029;-77
2021/03/31 08:19:20;;;;;;;16.88;8.07;;;15.00;61.30;;;;;;5014737;28;20033;-78
2021/03/31 08:21:49;;;;;;;18.42;8.23;;;15.20;60.70;;;;;;5011486;28;20323;-78
2021/03/31 08:24:16;;;;;;;19.70;7.40;;;15.30;60.50;;;;;;5014702;28;20120;-78
2021/03/31 08:26:44;;;;;;;22.95;8.52;;;15.50;60.30;;;;;;5015952;28;20021;-79
2021/03/31 08:29:19;;;;;;;20.40;8.52;;;15.70;59.40;;;;;;5017893;28;20080;-76
2021/03/31 08:31:55;;;;;;;14.27;8.20;;;16.00;58.90;;;;;;5024789;28;20053;-76
2021/03/31 08:34:23;;;;;;;16.13;8.45;;;16.20;56.30;;;;;;5016433;28;20467;-74
2021/03/31 08:36:49;;;;;;;19.02;8.90;;;16.30;54.50;;;;;;5014891;28;20119;-76
2021/03/31 08:39:14;;;;;;;16.17;8.32;;;16.30;53.70;;;;;;5018693;28;20554;-75
2021/03/31 08:41:42;;;;;;;16.90;8.80;;;16.50;54.50;;;;;;5017586;28;20056;-76
2021/03/31 08:44:36;;;;;;;18.88;10.20;;;16.70;53.00;;;;;;5020817;28;20093;-76
2021/03/31 08:47:19;;;;;;;16.35;8.30;;;17.00;51.30;;;;;;5033773;28;20365;-77
2021/03/31 08:49:49;;;;;;;20.13;9.13;;;17.00;51.70;;;;;;5018037;28;20068;-75
2021/03/31 08:52:17;;;;;;;;;;;17.00;51.50;;;;;;5036582;28;20060;-76
2021/03/31 08:54:48;;;;;;;17.00;8.63;;;17.10;51.50;;;;;;5017596;28;19945;-77
2021/03/31 08:57:20;;;;;;;19.35;8.43;;;17.30;51.10;;;;;;5017610;28;20117;-76
2021/03/31 08:59:56;;;;;;;17.58;8.98;;;17.30;50.70;;;;;;5022164;28;20060;-75
2021/03/31 09:02:23;;;;;;;21.77;9.07;;;17.50;49.90;;;;;;5017584;28;20388;-77
2021/03/31 09:04:54;;;;;;;17.50;8.77;;;17.70;49.70;;;;;;5017805;28;20180;-76
2021/03/31 09:07:20;;;;;;;15.50;8.80;;;17.80;48.30;;;;;;5020323;28;20029;-75
2021/03/31 09:09:46;;;;;;;15.52;7.22;;;17.80;48.70;;;;;;5023279;28;20021;-77
2021/03/31 09:12:15;;;;;;;11.75;6.88;;;18.10;48.30;;;;;;5020663;28;20460;-76
2021/03/31 09:14:45;;;;;;;15.25;7.13;;;18.10;48.70;;;;;;5018914;28;20110;-76
2021/03/31 09:17:16;;;;;;;15.77;7.68;;;18.40;48.30;;;;;;5023523;28;20622;-76
2021/03/31 09:19:42;;;;;;;20.13;7.68;;;19.40;48.90;;;;;;5024609;28;20045;-77
2021/03/31 09:22:12;;;;;;;18.38;6.60;;;18.50;47.70;;;;;;5022828;28;20045;-76
2021/03/31 09:24:43;;;;;;;13.60;6.55;;;18.60;47.50;;;;;;5023712;28;20077;-75
2021/03/31 09:27:14;;;;;;;12.55;7.28;;;18.70;47.60;;;;;;5037376;28;20030;-76
2021/03/31 09:29:44;;;;;;;15.23;7.38;;;18.90;48.70;;;;;;5015511;28;20110;-77
2021/03/31 09:32:14;;;;;;;14.48;7.13;;;19.00;47.30;;;;;;5021080;28;20476;-77
2021/03/31 09:34:40;;;;;;;19.42;6.63;;;19.20;47.70;;;;;;5023874;28;20021;-76
2021/03/31 09:37:11;;;;;;;14.63;6.85;;;19.40;46.90;;;;;;5016250;28;20092;-78
2021/03/31 09:39:42;;;;;;;13.43;6.90;;;19.40;46.80;;;;;;5023265;28;20816;-76
2021/03/31 09:42:14;;;;;;;11.55;6.10;;;20.50;47.00;;;;;;5017686;28;20400;-75
2021/03/31 09:44:40;;;;;;;15.43;6.97;;;19.60;46.50;;;;;;5018792;28;20730;-78
2021/03/31 09:47:09;;;;;;;13.70;6.05;;;19.70;46.00;;;;;;5020320;28;20124;-77
2021/03/31 09:49:35;;;;;;;10.63;5.78;;;19.90;46.50;;;;;;5020827;28;20717;-76
2021/03/31 09:52:05;;;;;;;14.25;6.38;;;20.00;46.10;;;;;;5023422;28;20029;-77
2021/03/31 09:54:31;;;;;;;9.52;5.72;;;20.10;45.60;;;;;;5023148;28;20073;-75
2021/03/31 09:56:57;;;;;;;14.10;5.82;;;20.20;44.70;;;;;;5021008;28;20033;-75
2021/03/31 09:59:24;;;;;;;9.27;5.20;;;20.20;45.10;;;;;;5019038;28;20071;-75
2021/03/31 10:01:50;;;;;;;12.93;5.22;;;20.30;46.10;;;;;;5014550;28;20412;-77
2021/03/31 10:04:19;;;;;;;11.55;4.80;;;20.60;45.70;;;;;;5032549;28;20060;-76
2021/03/31 10:06:45;;;;;;;17.15;4.57;;;20.60;45.10;;;;;;5013407;28;20029;-77
2021/03/31 10:09:20;;;;;;;7.63;4.10;;;20.80;45.70;;;;;;5018016;28;20059;-76
2021/03/31 10:11:46;;;;;;;11.38;4.28;;;20.90;45.60;;;;;;5035446;28;20029;-77
2021/03/31 10:14:22;;;;;;;10.95;4.45;;;21.10;44.90;;;;;;5024313;28;20484;-76
2021/03/31 10:16:50;;;;;;;9.52;3.83;;;21.10;44.70;;;;;;5029070;28;20091;-76
2021/03/31 10:19:17;;;;;;;12.02;3.80;;;21.20;44.80;;;;;;5016253;28;20028;-75
2021/03/31 10:21:43;;;;;;;9.07;3.65;;;21.20;45.00;;;;;;5018530;28;20026;-74
2021/03/31 10:24:11;;;;;;;8.85;4.25;;;21.20;44.50;;;;;;5021026;28;20029;-78
2021/03/31 10:26:44;;;;;;;9.45;4.10;;;21.50;45.00;;;;;;5015404;28;20383;-76
2021/03/31 10:29:24;;;;;;;11.77;3.67;;;21.60;44.60;;;;;;5011368;28;20057;-78
2021/03/31 10:31:51;;;;;;;7.82;3.22;;;21.70;45.80;;;;;;5007996;28;20485;-76
2021/03/31 10:34:18;;;;;;;8.35;4.07;;;21.80;45.10;;;;;;5015652;28;20029;-75
2021/03/31 10:48:04;;;;;;;8.07;3.20;;;22.30;45.40;;;;;;5013971;28;20061;-77
2021/03/31 10:50:32;;;;;;;10.15;4.10;;;22.30;45.30;;;;;;5018480;28;20080;-76
2021/03/31 10:52:59;;;;;;;5.95;3.08;;;22.30;44.50;;;;;;5017349;28;20060;-76
2021/03/31 10:55:25;;;;;;;9.13;3.10;;;22.30;44.60;;;;;;5014464;28;20018;-76
2021/03/31 10:57:50;;;;;;;5.68;3.50;;;22.40;45.00;;;;;;5018076;28;20484;-76
2021/03/31 11:00:16;;;;;;;5.93;3.65;;;22.50;44.50;;;;;;5017617;28;20752;-75
2021/03/31 11:02:44;;;;;;;5.03;3.17;;;22.70;43.90;;;;;;5017654;28;20035;-78
2021/03/31 11:05:10;;;;;;;6.43;3.45;;;22.60;44.30;;;;;;5016727;28;20029;-76
2021/03/31 11:07:36;;;;;;;7.57;2.90;;;22.80;43.20;;;;;;5030199;28;20401;-75
2021/03/31 11:10:03;;;;;;;8.30;3.10;;;22.90;43.20;;;;;;5013173;28;20029;-77
2021/03/31 11:12:29;;;;;;;8.13;3.30;;;23.00;43.10;;;;;;5034929;28;20033;-76
2021/03/31 11:14:56;;;;;;;10.55;3.15;;;23.00;41.40;;;;;;5024601;28;20029;-77
2021/03/31 11:17:31;;;;;;;8.55;2.90;;;23.10;40.30;;;;;;5019870;28;20029;-78
2021/03/31 11:27:56;;;;;;;11.23;3.85;;;23.30;41.00;;;;;;5019354;28;20083;-75
2021/03/31 11:30:22;;;;;;;6.35;3.20;;;23.40;41.10;;;;;;5017076;28;20026;-75
2021/03/31 11:32:48;;;;;;;7.07;3.65;;;23.40;41.40;;;;;;5035301;28;20033;-76
2021/03/31 11:35:13;;;;;;;8.18;2.83;;;23.40;40.80;;;;;;5015080;28;20106;-77
2021/03/31 11:37:39;;;;;;;5.82;3.05;;;23.50;39.80;;;;;;5016052;28;20034;-78
2021/03/31 11:40:06;;;;;;;6.80;3.17;;;23.50;40.30;;;;;;5023383;28;20076;-76
2021/03/31 11:42:32;;;;;;;7.07;2.88;;;23.50;39.30;;;;;;5020295;28;20120;-79
2021/03/31 11:44:57;;;;;;;11.80;3.90;;;23.50;38.70;;;;;;5018785;28;20112;-77
2021/03/31 11:47:23;;;;;;;9.93;3.10;;;23.50;38.10;;;;;;5014345;28;20459;-76
2021/03/31 11:49:48;;;;;;;10.07;3.50;;;23.60;37.70;;;;;;5017588;28;20029;-76
2021/03/31 11:52:14;;;;;;;7.43;3.10;;;23.70;38.20;;;;;;5029954;28;20102;-77
2021/03/31 11:54:39;;;;;;;6.60;3.47;;;23.80;38.40;;;;;;5022177;28;20037;-77
2021/03/31 11:57:05;;;;;;;11.40;3.17;;;24.10;39.10;;;;;;5019544;28;20511;-77
2021/03/31 11:59:31;;;;;;;8.35;3.58;;;24.10;38.20;;;;;;5016807;28;20033;-76
2021/03/31 12:01:59;;;;;;;6.72;3.00;;;24.20;38.40;;;;;;5011600;28;20030;-76
2021/03/31 12:04:24;;;;;;;8.18;2.80;;;24.10;38.30;;;;;;5011617;28;20496;-76
2021/03/31 12:06:50;;;;;;;8.40;2.85;;;24.10;37.70;;;;;;5016896;28;20335;-77
2021/03/31 12:09:16;;;;;;;10.40;2.88;;;24.10;37.30;;;;;;5006121;28;20026;-76
2021/03/31 12:11:42;;;;;;;8.85;3.47;;;;;;;;;;5032425;28;20140;-77
2021/03/31 12:14:07;;;;;;;7.28;3.00;;;24.30;38.00;;;;;;5016471;28;20037;-77
2021/03/31 12:16:35;;;;;;;7.47;2.88;;;24.40;38.10;;;;;;5008781;28;20471;-76
2021/03/31 12:19:01;;;;;;;5.78;2.88;;;24.40;37.80;;;;;;5012416;28;20025;-76
2021/03/31 12:21:27;;;;;;;8.35;3.05;;;24.30;38.00;;;;;;5022400;28;20025;-76
2021/03/31 12:23:52;;;;;;;14.50;4.18;;;24.20;37.70;;;;;;5017903;28;20025;-76
2021/03/31 12:26:19;;;;;;;6.03;3.55;;;24.20;38.80;;;;;;5019960;28;20021;-77
2021/03/31 12:28:53;;;;;;;15.20;3.38;;;24.20;38.00;;;;;;5012298;28;20054;-75
2021/03/31 12:31:19;;;;;;;8.63;2.70;;;24.30;38.40;;;;;;5014239;28;20358;-76
2021/03/31 12:33:44;;;;;;;7.07;2.80;;;24.40;38.40;;;;;;5017919;28;20029;-77
2021/03/31 12:36:10;;;;;;;10.20;2.85;;;24.50;38.90;;;;;;5020387;28;21363;-76
2021/03/31 12:38:36;;;;;;;7.53;3.38;;;24.50;38.60;;;;;;5012991;28;20080;-76
2021/03/31 12:41:03;;;;;;;9.38;3.85;;;24.40;37.80;;;;;;5009630;28;20079;-78
2021/03/31 12:43:29;;;;;;;10.80;4.72;;;24.40;36.00;;;;;;5014406;28;20032;-77
2021/03/31 12:45:54;;;;;;;7.05;2.78;;;24.30;36.60;;;;;;5019282;28;20033;-76
2021/03/31 12:48:20;;;;;;;6.72;2.83;;;24.50;36.20;;;;;;5031059;28;20022;-76
2021/03/31 12:50:47;;;;;;;6.53;2.60;;;24.60;34.30;;;;;;5019421;28;20037;-76
2021/03/31 12:53:31;;;;;;;9.80;4.05;;;24.70;34.70;;;;;;5019041;28;20060;-78
2021/03/31 12:55:58;;;;;;;8.38;2.65;;;24.80;34.50;;;;;;5019180;28;20044;-77
2021/03/31 12:58:23;;;;;;;6.90;2.75;;;24.80;36.00;;;;;;5014646;28;20037;-77
2021/03/31 13:00:52;;;;;;;9.55;3.72;;;24.90;35.80;;;;;;5014548;28;20025;-76
2021/03/31 13:03:18;;;;;;;9.75;4.45;;;25.00;34.70;;;;;;5017971;28;20025;-75
2021/03/31 13:05:43;;;;;;;8.20;3.40;;;24.90;34.40;;;;;;5017049;28;20183;-77
2021/03/31 13:08:12;;;;;;;11.50;3.25;;;24.90;34.60;;;;;;5015741;28;20029;-78
2021/03/31 13:10:40;;;;;;;13.88;3.08;;;25.00;34.40;;;;;;5020203;28;20045;-78
2021/03/31 13:16:10;;;;;;;8.57;3.35;;;25.10;33.40;;;;;;5017144;28;20070;-78
2021/03/31 13:32:01;;;;;;;7.40;2.72;;;25.50;33.60;;;;;;5022571;28;20119;-77